KCAR 240854Z AUTO 17008KT 10SM OVC025 M04/M06 A2969 RMK AO2 FZRAE08 SLP067 P0001 60002 I1000 I3003 T10441061 58021